BAW63VP LGAV-EGLL
Flight info
| Callsign | BAW63VP |
|---|---|
| Flight time | N/A |
| Altitude | 34000 |
| Route | KOR1E KOR UL53 IPTES DCT DIMIS DCT VAKSU DCT ROTAR DCT BORMI/N0450F360 DCT RESIA DCT ELMUR L613 HOC DCT LUL DCT RLP DCT ROTSI DCT KOTUN DCT NINAL DCT ABNUR DCT DIMAL DCT ALESO ALESO1H |
| Aircraft | A320/M-SDE3FGIJ1KRWXY/SB1 |
Departure
| Time | N/A |
|---|---|
| Airport | Athens Eleftherios Venizelos International Airport (LGAV) |
Arrival
| Time | 2026-04-30 20:03 |
|---|---|
| Airport | London Heathrow Airport (EGLL) |
| Time | Latitude | Longitude | Altitude | Speed | Heading |
|---|---|---|---|---|---|
| 2026-04-30 17:39 | 37.94307 | 23.11020 | 25414 ft | 423 kts | 265° |
| 2026-04-30 17:41 | 37.98511 | 22.83683 | 28405 ft | 440 kts | 303° |
| 2026-04-30 17:42 | 38.02030 | 22.77297 | 29009 ft | 443 kts | 303° |
| 2026-04-30 17:42 | 38.07285 | 22.67687 | 30238 ft | 440 kts | 303° |
| 2026-04-30 17:43 | 38.10753 | 22.61330 | 31075 ft | 436 kts | 303° |
| 2026-04-30 17:44 | 38.15933 | 22.51892 | 32237 ft | 432 kts | 303° |
| 2026-04-30 17:44 | 38.21048 | 22.42500 | 33468 ft | 427 kts | 303° |
| 2026-04-30 17:46 | 38.29445 | 22.27022 | 34028 ft | 423 kts | 303° |
| 2026-04-30 17:47 | 38.36150 | 22.14607 | 34034 ft | 427 kts | 303° |
| 2026-04-30 17:48 | 38.47917 | 21.92715 | 34049 ft | 427 kts | 303° |
| 2026-04-30 17:50 | 38.61688 | 21.68018 | 34043 ft | 430 kts | 315° |
| 2026-04-30 17:52 | 38.74840 | 21.52374 | 34046 ft | 430 kts | 315° |
| 2026-04-30 17:54 | 38.94506 | 21.28779 | 34072 ft | 429 kts | 314° |
| 2026-04-30 17:56 | 39.11872 | 21.07778 | 34062 ft | 428 kts | 314° |
| 2026-04-30 17:58 | 39.24852 | 20.92006 | 34072 ft | 427 kts | 313° |
| 2026-04-30 17:59 | 39.33450 | 20.81452 | 33707 ft | 428 kts | 315° |
| 2026-04-30 18:00 | 39.42188 | 20.70356 | 34010 ft | 456 kts | 316° |
| 2026-04-30 18:00 | 39.49155 | 20.61540 | 34010 ft | 482 kts | 316° |
| 2026-04-30 18:01 | 39.54040 | 20.55345 | 34009 ft | 500 kts | 316° |
| 2026-04-30 18:02 | 39.61675 | 20.45621 | 34009 ft | 524 kts | 316° |
| 2026-04-30 18:02 | 39.69533 | 20.35583 | 34005 ft | 529 kts | 316° |
| 2026-04-30 18:03 | 39.77571 | 20.25284 | 34013 ft | 553 kts | 316° |
| 2026-04-30 18:04 | 39.85934 | 20.14542 | 34007 ft | 568 kts | 316° |
| 2026-04-30 18:06 | 40.08563 | 19.85233 | 33998 ft | 579 kts | 316° |
| 2026-04-30 18:08 | 40.28701 | 19.58865 | 34103 ft | 602 kts | 316° |
| 2026-04-30 18:09 | 40.40466 | 19.43400 | 35693 ft | 593 kts | 316° |
| 2026-04-30 18:10 | 40.51116 | 19.29287 | 36008 ft | 591 kts | 316° |
| 2026-04-30 18:11 | 40.63625 | 19.12695 | 34151 ft | 590 kts | 316° |
| 2026-04-30 18:11 | 40.72316 | 19.01078 | 34007 ft | 595 kts | 315° |
| 2026-04-30 18:13 | 40.86948 | 18.81370 | 34009 ft | 605 kts | 315° |
| 2026-04-30 18:14 | 41.01679 | 18.61489 | 34013 ft | 605 kts | 315° |
| 2026-04-30 18:15 | 41.19255 | 18.37529 | 34010 ft | 605 kts | 315° |
| 2026-04-30 18:16 | 41.30967 | 18.21464 | 34011 ft | 605 kts | 315° |
| 2026-04-30 18:17 | 41.36799 | 18.13397 | 34010 ft | 605 kts | 315° |
| 2026-04-30 18:18 | 41.45559 | 18.01286 | 34010 ft | 605 kts | 315° |
| 2026-04-30 18:18 | 41.51411 | 17.93177 | 34011 ft | 605 kts | 315° |
| 2026-04-30 18:19 | 41.57233 | 17.85073 | 34012 ft | 605 kts | 315° |
| 2026-04-30 18:19 | 41.63055 | 17.76950 | 34014 ft | 605 kts | 315° |
| 2026-04-30 18:20 | 41.68871 | 17.68800 | 34017 ft | 605 kts | 315° |
| 2026-04-30 18:20 | 41.74679 | 17.60650 | 34018 ft | 605 kts | 315° |
| 2026-04-30 18:21 | 41.80490 | 17.52487 | 34016 ft | 605 kts | 314° |
| 2026-04-30 18:21 | 41.86255 | 17.44358 | 34018 ft | 605 kts | 314° |
| 2026-04-30 18:22 | 41.92093 | 17.36109 | 34018 ft | 605 kts | 314° |
| 2026-04-30 18:22 | 41.99795 | 17.25177 | 34013 ft | 605 kts | 314° |
| 2026-04-30 18:23 | 42.06523 | 17.15616 | 34019 ft | 605 kts | 314° |
| 2026-04-30 18:23 | 42.11365 | 17.08704 | 34016 ft | 605 kts | 314° |
| 2026-04-30 18:24 | 42.20013 | 16.96310 | 34014 ft | 605 kts | 314° |
| 2026-04-30 18:25 | 42.25761 | 16.88022 | 34013 ft | 605 kts | 314° |
| 2026-04-30 18:25 | 42.34379 | 16.75580 | 34008 ft | 605 kts | 314° |
| 2026-04-30 18:26 | 42.42967 | 16.63147 | 34010 ft | 605 kts | 314° |
| 2026-04-30 18:27 | 42.51559 | 16.50620 | 34011 ft | 605 kts | 314° |
| 2026-04-30 18:28 | 42.60160 | 16.38056 | 34009 ft | 605 kts | 314° |
| 2026-04-30 18:28 | 42.68741 | 16.25463 | 34017 ft | 605 kts | 313° |
| 2026-04-30 18:29 | 42.80158 | 16.08606 | 34019 ft | 606 kts | 313° |
| 2026-04-30 18:30 | 42.91548 | 15.91676 | 34016 ft | 606 kts | 313° |
| 2026-04-30 18:31 | 43.00076 | 15.78943 | 34017 ft | 606 kts | 312° |
| 2026-04-30 18:32 | 43.08602 | 15.66175 | 34019 ft | 606 kts | 312° |
| 2026-04-30 18:33 | 43.17111 | 15.53357 | 34022 ft | 606 kts | 312° |
| 2026-04-30 18:33 | 43.25592 | 15.40504 | 34021 ft | 606 kts | 312° |
| 2026-04-30 18:34 | 43.34036 | 15.27688 | 34017 ft | 606 kts | 312° |
| 2026-04-30 18:35 | 43.39691 | 15.19083 | 34020 ft | 606 kts | 312° |
| 2026-04-30 18:35 | 43.45326 | 15.10466 | 34022 ft | 606 kts | 312° |
| 2026-04-30 18:36 | 43.53765 | 14.97498 | 34024 ft | 606 kts | 311° |
| 2026-04-30 18:37 | 43.62186 | 14.84499 | 34016 ft | 605 kts | 311° |
| 2026-04-30 18:37 | 43.67787 | 14.75824 | 34016 ft | 605 kts | 311° |
| 2026-04-30 18:38 | 43.73385 | 14.67125 | 34013 ft | 605 kts | 311° |
| 2026-04-30 18:38 | 43.78975 | 14.58424 | 34012 ft | 605 kts | 311° |
| 2026-04-30 18:39 | 43.84564 | 14.49701 | 34013 ft | 605 kts | 311° |
| 2026-04-30 18:39 | 43.90137 | 14.40958 | 34011 ft | 605 kts | 311° |
| 2026-04-30 18:40 | 43.95698 | 14.32200 | 34009 ft | 605 kts | 311° |
| 2026-04-30 18:40 | 44.01258 | 14.23427 | 34007 ft | 605 kts | 311° |
| 2026-04-30 18:41 | 44.06822 | 14.14639 | 34014 ft | 605 kts | 311° |
| 2026-04-30 18:41 | 44.12338 | 14.05889 | 34013 ft | 605 kts | 311° |
| 2026-04-30 18:42 | 44.17880 | 13.97070 | 34014 ft | 605 kts | 311° |
| 2026-04-30 18:42 | 44.26175 | 13.83805 | 34010 ft | 605 kts | 310° |
| 2026-04-30 18:45 | 44.56475 | 13.34880 | 34012 ft | 605 kts | 310° |
| 2026-04-30 18:46 | 44.61958 | 13.25905 | 34014 ft | 605 kts | 310° |
| 2026-04-30 18:46 | 44.67454 | 13.16920 | 34014 ft | 605 kts | 310° |
| 2026-04-30 18:47 | 44.72935 | 13.07925 | 34013 ft | 605 kts | 310° |
| 2026-04-30 18:47 | 44.78395 | 12.98907 | 34009 ft | 605 kts | 310° |
| 2026-04-30 18:48 | 44.83858 | 12.89883 | 34011 ft | 605 kts | 310° |
| 2026-04-30 18:48 | 44.89318 | 12.80829 | 34019 ft | 605 kts | 310° |
| 2026-04-30 18:49 | 44.94271 | 12.71272 | 34015 ft | 604 kts | 301° |
| 2026-04-30 18:49 | 44.98952 | 12.61423 | 34013 ft | 604 kts | 301° |
| 2026-04-30 18:50 | 45.03593 | 12.51620 | 34014 ft | 604 kts | 301° |
| 2026-04-30 18:50 | 45.08260 | 12.41738 | 34019 ft | 604 kts | 301° |
| 2026-04-30 18:51 | 45.12901 | 12.31834 | 34019 ft | 604 kts | 301° |
| 2026-04-30 18:51 | 45.17534 | 12.21912 | 34014 ft | 603 kts | 301° |
| 2026-04-30 18:52 | 45.22171 | 12.11982 | 34020 ft | 603 kts | 301° |
| 2026-04-30 18:52 | 45.26797 | 12.02042 | 34012 ft | 603 kts | 301° |
| 2026-04-30 18:53 | 45.31406 | 11.92087 | 34009 ft | 603 kts | 301° |
| 2026-04-30 18:53 | 45.36010 | 11.82114 | 34006 ft | 603 kts | 301° |
| 2026-04-30 18:54 | 45.40610 | 11.72125 | 34009 ft | 603 kts | 300° |
| 2026-04-30 18:54 | 45.45191 | 11.62128 | 34008 ft | 603 kts | 300° |
| 2026-04-30 18:55 | 45.49768 | 11.52113 | 34008 ft | 603 kts | 301° |
| 2026-04-30 18:55 | 45.56616 | 11.37052 | 34008 ft | 603 kts | 300° |
| 2026-04-30 18:56 | 45.63443 | 11.21943 | 33991 ft | 604 kts | 300° |
| 2026-04-30 18:57 | 45.70250 | 11.06813 | 33973 ft | 607 kts | 300° |
| 2026-04-30 18:57 | 45.74811 | 10.96641 | 33997 ft | 607 kts | 300° |
| 2026-04-30 18:58 | 45.81662 | 10.81274 | 34019 ft | 607 kts | 300° |
| 2026-04-30 18:59 | 45.88423 | 10.66000 | 33992 ft | 607 kts | 299° |
| 2026-04-30 19:00 | 45.97503 | 10.45394 | 33977 ft | 611 kts | 299° |
| 2026-04-30 19:01 | 46.06557 | 10.24700 | 34032 ft | 612 kts | 299° |
| 2026-04-30 19:02 | 46.13339 | 10.09109 | 34008 ft | 612 kts | 299° |
| 2026-04-30 19:03 | 46.23457 | 9.89454 | 34008 ft | 614 kts | 306° |
| 2026-04-30 19:04 | 46.32938 | 9.71446 | 34009 ft | 617 kts | 305° |
| 2026-04-30 19:05 | 46.43211 | 9.51566 | 33982 ft | 616 kts | 305° |
| 2026-04-30 19:06 | 46.53480 | 9.31649 | 33994 ft | 616 kts | 305° |
| 2026-04-30 19:06 | 46.61178 | 9.16662 | 34007 ft | 616 kts | 305° |
| 2026-04-30 19:07 | 46.68833 | 9.01645 | 34004 ft | 616 kts | 305° |
| 2026-04-30 19:08 | 46.78947 | 8.81676 | 34013 ft | 613 kts | 304° |
| 2026-04-30 19:09 | 46.86608 | 8.66811 | 34011 ft | 609 kts | 308° |
| 2026-04-30 19:09 | 46.92030 | 8.57408 | 34012 ft | 604 kts | 310° |
| 2026-04-30 19:10 | 47.02941 | 8.38665 | 34001 ft | 601 kts | 309° |
| 2026-04-30 19:11 | 47.10868 | 8.24414 | 33996 ft | 602 kts | 308° |
| 2026-04-30 19:12 | 47.16169 | 8.14901 | 33996 ft | 602 kts | 308° |
| 2026-04-30 19:12 | 47.21494 | 8.05388 | 34003 ft | 603 kts | 309° |
| 2026-04-30 19:13 | 47.32132 | 7.86272 | 33997 ft | 605 kts | 308° |
| 2026-04-30 19:14 | 47.37448 | 7.76641 | 33981 ft | 606 kts | 308° |
| 2026-04-30 19:14 | 47.42770 | 7.66971 | 33985 ft | 608 kts | 308° |
| 2026-04-30 19:15 | 47.48110 | 7.57242 | 33991 ft | 608 kts | 308° |
| 2026-04-30 19:15 | 47.56074 | 7.42640 | 34004 ft | 608 kts | 308° |
| 2026-04-30 19:16 | 47.61382 | 7.32879 | 34007 ft | 608 kts | 308° |
| 2026-04-30 19:17 | 47.69320 | 7.18215 | 34013 ft | 607 kts | 308° |
| 2026-04-30 19:17 | 47.77208 | 7.03570 | 34013 ft | 607 kts | 307° |
| 2026-04-30 19:18 | 47.85099 | 6.88818 | 33996 ft | 607 kts | 307° |
| 2026-04-30 19:19 | 47.90350 | 6.78959 | 34002 ft | 607 kts | 307° |
| 2026-04-30 19:21 | 48.11805 | 6.38346 | 34014 ft | 608 kts | 307° |
| 2026-04-30 19:22 | 48.21339 | 6.20074 | 34012 ft | 607 kts | 307° |
| 2026-04-30 19:23 | 48.36908 | 5.90017 | 34016 ft | 607 kts | 306° |
| 2026-04-30 19:24 | 48.44655 | 5.74911 | 34007 ft | 607 kts | 306° |
| 2026-04-30 19:25 | 48.57522 | 5.49670 | 34008 ft | 607 kts | 306° |
| 2026-04-30 19:26 | 48.67846 | 5.29190 | 34006 ft | 619 kts | 306° |
| 2026-04-30 19:27 | 48.75670 | 5.13585 | 34008 ft | 621 kts | 307° |
| 2026-04-30 19:28 | 48.83494 | 4.97946 | 34011 ft | 620 kts | 306° |
| 2026-04-30 19:29 | 48.93860 | 4.77007 | 34010 ft | 620 kts | 306° |
| 2026-04-30 19:30 | 49.04183 | 4.55992 | 34010 ft | 620 kts | 306° |
| 2026-04-30 19:31 | 49.14493 | 4.34879 | 34007 ft | 619 kts | 306° |
| 2026-04-30 19:31 | 49.22174 | 4.18985 | 34008 ft | 619 kts | 306° |
| 2026-04-30 19:32 | 49.27280 | 4.08370 | 34011 ft | 619 kts | 305° |
| 2026-04-30 19:32 | 49.32381 | 3.97739 | 34011 ft | 619 kts | 305° |
| 2026-04-30 19:33 | 49.37483 | 3.87092 | 34012 ft | 619 kts | 305° |
| 2026-04-30 19:33 | 49.42566 | 3.76417 | 34013 ft | 619 kts | 305° |
| 2026-04-30 19:34 | 49.47627 | 3.65709 | 34013 ft | 619 kts | 305° |
| 2026-04-30 19:35 | 49.55219 | 3.49622 | 34009 ft | 619 kts | 305° |
| 2026-04-30 19:35 | 49.60264 | 3.38875 | 34007 ft | 619 kts | 304° |
| 2026-04-30 19:36 | 49.65294 | 3.28108 | 34006 ft | 619 kts | 304° |
| 2026-04-30 19:36 | 49.72925 | 3.12014 | 34003 ft | 619 kts | 308° |
| 2026-04-30 19:37 | 49.78491 | 3.01854 | 34007 ft | 619 kts | 313° |
| 2026-04-30 19:37 | 49.84238 | 2.91920 | 34008 ft | 619 kts | 312° |
| 2026-04-30 19:38 | 49.89873 | 2.81807 | 34013 ft | 620 kts | 310° |
| 2026-04-30 19:38 | 49.95374 | 2.71513 | 34014 ft | 620 kts | 309° |
| 2026-04-30 19:39 | 50.00869 | 2.61194 | 34017 ft | 620 kts | 310° |
| 2026-04-30 19:39 | 50.06409 | 2.50902 | 34017 ft | 620 kts | 310° |
| 2026-04-30 19:40 | 50.11923 | 2.40686 | 34014 ft | 620 kts | 310° |
| 2026-04-30 19:40 | 50.17449 | 2.30357 | 34021 ft | 620 kts | 310° |
| 2026-04-30 19:41 | 50.22947 | 2.19981 | 34016 ft | 620 kts | 309° |
| 2026-04-30 19:41 | 50.28439 | 2.09580 | 34013 ft | 620 kts | 309° |
| 2026-04-30 19:42 | 50.33918 | 1.99173 | 34009 ft | 619 kts | 309° |
| 2026-04-30 19:42 | 50.36665 | 1.93948 | 33765 ft | 621 kts | 309° |
| 2026-04-30 19:42 | 50.39408 | 1.88726 | 33326 ft | 617 kts | 309° |
| 2026-04-30 19:43 | 50.42134 | 1.83533 | 33075 ft | 615 kts | 309° |
| 2026-04-30 19:43 | 50.44849 | 1.78346 | 32826 ft | 615 kts | 309° |
| 2026-04-30 19:43 | 50.47563 | 1.73145 | 32576 ft | 615 kts | 309° |
| 2026-04-30 19:44 | 50.52981 | 1.62723 | 30650 ft | 612 kts | 309° |
| 2026-04-30 19:44 | 50.55668 | 1.57533 | 29419 ft | 611 kts | 309° |
| 2026-04-30 19:44 | 50.58332 | 1.52377 | 28706 ft | 615 kts | 309° |
| 2026-04-30 19:44 | 50.61033 | 1.47147 | 27812 ft | 616 kts | 309° |
| 2026-04-30 19:45 | 50.63733 | 1.41907 | 26974 ft | 614 kts | 309° |
| 2026-04-30 19:45 | 50.66444 | 1.36627 | 26342 ft | 608 kts | 309° |
| 2026-04-30 19:45 | 50.69088 | 1.31461 | 25507 ft | 605 kts | 309° |
| 2026-04-30 19:45 | 50.71731 | 1.26298 | 24690 ft | 602 kts | 309° |
| 2026-04-30 19:46 | 50.74352 | 1.21172 | 23943 ft | 598 kts | 309° |
| 2026-04-30 19:46 | 50.76956 | 1.16073 | 23231 ft | 594 kts | 309° |
| 2026-04-30 19:46 | 50.79534 | 1.11014 | 22457 ft | 590 kts | 309° |
| 2026-04-30 19:46 | 50.82115 | 1.05941 | 21424 ft | 593 kts | 309° |
| 2026-04-30 19:47 | 50.84692 | 1.00865 | 20680 ft | 591 kts | 308° |
| 2026-04-30 19:47 | 50.86396 | 0.97498 | 20200 ft | 589 kts | 308° |
| 2026-04-30 19:47 | 50.89798 | 0.90754 | 19176 ft | 583 kts | 308° |
| 2026-04-30 19:47 | 50.92014 | 0.85524 | 18804 ft | 575 kts | 294° |
| 2026-04-30 19:48 | 50.93839 | 0.79894 | 18559 ft | 574 kts | 292° |
| 2026-04-30 19:48 | 50.95674 | 0.74187 | 18305 ft | 573 kts | 292° |
| 2026-04-30 19:48 | 50.97477 | 0.68555 | 18054 ft | 571 kts | 292° |
| 2026-04-30 19:48 | 50.99265 | 0.62936 | 17805 ft | 565 kts | 293° |
| 2026-04-30 19:49 | 51.01008 | 0.57436 | 17550 ft | 552 kts | 300° |
| 2026-04-30 19:49 | 51.04402 | 0.46648 | 17052 ft | 543 kts | 302° |
| 2026-04-30 19:49 | 51.06083 | 0.41290 | 16803 ft | 540 kts | 301° |
| 2026-04-30 19:50 | 51.07709 | 0.36091 | 16556 ft | 523 kts | 301° |
| 2026-04-30 19:50 | 51.09310 | 0.30959 | 16302 ft | 514 kts | 301° |
| 2026-04-30 19:50 | 51.10876 | 0.25927 | 16086 ft | 498 kts | 301° |
| 2026-04-30 19:50 | 51.12391 | 0.21052 | 15749 ft | 486 kts | 301° |
| 2026-04-30 19:51 | 51.13884 | 0.16254 | 15174 ft | 482 kts | 301° |
| 2026-04-30 19:51 | 51.15366 | 0.11493 | 14559 ft | 477 kts | 300° |
| 2026-04-30 19:51 | 51.16814 | 0.06853 | 14391 ft | 458 kts | 298° |
| 2026-04-30 19:51 | 51.18194 | 0.02398 | 14246 ft | 438 kts | 298° |
| 2026-04-30 19:52 | 51.19508 | -0.01866 | 13424 ft | 423 kts | 298° |
| 2026-04-30 19:52 | 51.20793 | -0.06033 | 12379 ft | 416 kts | 298° |
| 2026-04-30 19:52 | 51.22063 | -0.10150 | 11379 ft | 409 kts | 298° |
| 2026-04-30 19:52 | 51.23282 | -0.14103 | 11003 ft | 381 kts | 297° |
| 2026-04-30 19:53 | 51.24405 | -0.17766 | 10873 ft | 352 kts | 295° |
| 2026-04-30 19:53 | 51.25443 | -0.21141 | 10747 ft | 327 kts | 294° |
| 2026-04-30 19:53 | 51.26420 | -0.24314 | 10389 ft | 313 kts | 294° |
| 2026-04-30 19:53 | 51.27369 | -0.27410 | 9851 ft | 307 kts | 294° |
| 2026-04-30 19:54 | 51.28290 | -0.30431 | 9473 ft | 300 kts | 294° |
| 2026-04-30 19:54 | 51.29208 | -0.33444 | 9150 ft | 300 kts | 294° |
| 2026-04-30 19:54 | 51.30118 | -0.36437 | 8815 ft | 299 kts | 294° |
| 2026-04-30 19:54 | 51.31022 | -0.39415 | 8476 ft | 297 kts | 294° |
| 2026-04-30 19:55 | 51.31922 | -0.42381 | 8148 ft | 296 kts | 294° |
| 2026-04-30 19:55 | 51.32816 | -0.45337 | 7816 ft | 295 kts | 294° |
| 2026-04-30 19:55 | 51.33708 | -0.48289 | 7484 ft | 294 kts | 294° |
| 2026-04-30 19:55 | 51.34597 | -0.51231 | 7152 ft | 293 kts | 294° |
| 2026-04-30 19:56 | 51.35479 | -0.54153 | 6836 ft | 291 kts | 294° |
| 2026-04-30 19:56 | 51.36343 | -0.57009 | 6496 ft | 284 kts | 294° |
| 2026-04-30 19:56 | 51.37202 | -0.59843 | 6065 ft | 277 kts | 294° |
| 2026-04-30 19:56 | 51.38027 | -0.62572 | 5695 ft | 268 kts | 293° |
| 2026-04-30 19:57 | 51.38821 | -0.65197 | 5395 ft | 257 kts | 293° |
| 2026-04-30 19:57 | 51.39327 | -0.66875 | 5206 ft | 250 kts | 293° |
| 2026-04-30 19:57 | 51.40301 | -0.70110 | 4751 ft | 239 kts | 292° |
| 2026-04-30 19:57 | 51.40787 | -0.71752 | 4297 ft | 244 kts | 292° |
| 2026-04-30 19:58 | 51.41987 | -0.74736 | 3888 ft | 238 kts | 318° |
| 2026-04-30 19:58 | 51.43391 | -0.76023 | 3608 ft | 232 kts | 347° |
| 2026-04-30 19:58 | 51.44467 | -0.76249 | 3347 ft | 230 kts | 9° |
| 2026-04-30 19:58 | 51.45914 | -0.75583 | 3260 ft | 205 kts | 37° |
| 2026-04-30 19:59 | 51.46944 | -0.74185 | 3134 ft | 192 kts | 61° |
| 2026-04-30 19:59 | 51.47522 | -0.72364 | 2953 ft | 177 kts | 83° |
| 2026-04-30 19:59 | 51.47649 | -0.68759 | 2555 ft | 153 kts | 97° |
| 2026-04-30 20:00 | 51.47657 | -0.67011 | 2358 ft | 160 kts | 96° |
| 2026-04-30 20:00 | 51.47667 | -0.65241 | 2146 ft | 160 kts | 95° |
| 2026-04-30 20:00 | 51.47677 | -0.63456 | 1931 ft | 160 kts | 95° |
| 2026-04-30 20:00 | 51.47687 | -0.61650 | 1712 ft | 160 kts | 94° |
| 2026-04-30 20:01 | 51.47705 | -0.58220 | 1311 ft | 143 kts | 93° |
| 2026-04-30 20:01 | 51.47713 | -0.56665 | 1110 ft | 134 kts | 92° |
| 2026-04-30 20:01 | 51.47720 | -0.55185 | 927 ft | 132 kts | 91° |
| 2026-04-30 20:02 | 51.47738 | -0.52264 | 535 ft | 132 kts | 88° |
| 2026-04-30 20:02 | 51.47737 | -0.50809 | 343 ft | 132 kts | 87° |
| 2026-04-30 20:03 | 51.47754 | -0.47915 | 86 ft | 113 kts | 90° |
| 2026-04-30 20:03 | 51.47746 | -0.47183 | 86 ft | 26 kts | 115° |
| 2026-04-30 20:03 | 51.47627 | -0.47025 | 87 ft | 17 kts | 144° |
| 2026-04-30 20:03 | 51.47582 | -0.47028 | 88 ft | 6 kts | 269° |
| 2026-04-30 20:04 | 51.47582 | -0.47139 | 90 ft | 12 kts | 269° |
| 2026-04-30 20:04 | 51.47581 | -0.47303 | 88 ft | 18 kts | 270° |
| 2026-04-30 20:04 | 51.47581 | -0.47524 | 89 ft | 21 kts | 270° |
| 2026-04-30 20:05 | 51.47578 | -0.48061 | 89 ft | 27 kts | 269° |
| 2026-04-30 20:05 | 51.47578 | -0.48348 | 88 ft | 26 kts | 270° |
| 2026-04-30 20:05 | 51.47370 | -0.48474 | 86 ft | 21 kts | 179° |
| 2026-04-30 20:06 | 51.47315 | -0.48500 | 89 ft | 7 kts | 264° |
| 2026-04-30 20:06 | 51.47316 | -0.48588 | 86 ft | 5 kts | 270° |
| 2026-04-30 20:06 | 51.47316 | -0.48593 | 86 ft | 0 kts | 270° |